Terminal Aerodrome Forecast
Issued by NWS Jackson, KY

Home | Current Version | Previous Version | Text Only | Print | Product List | Glossary On
Versions: 1 2 3 4 5 6 7 8 9 10 11 12 13 14 15 16 17 18 19 20
000
FTUS43 KJKL 171739
TAFJKL
TAF
KJKL 171739Z 1718/1818 VRB06KT 1 1/2SM RA BR BKN004 OVC020
     FM172200 VRB03KT 4SM -SHRA BR SCT004 BKN008 OVC010
     FM180100 VRB06KT P6SM OVC008
     FM181200 VRB03KT P6SM SCT015=

USA.gov is the U.S. government's official web portal to all federal, state and local government web resources and services.